createdAt,value
2023-02-23T00:02:32.813Z,11.81
2023-02-23T00:07:36.931Z,11.76
2023-02-23T00:12:40.343Z,11.57
2023-02-23T00:17:48.004Z,11.70
2023-02-23T00:22:51.346Z,11.75
2023-02-23T00:27:55.066Z,11.61
2023-02-23T00:32:59.762Z,11.65
2023-02-23T00:38:03.605Z,11.60
2023-02-23T00:43:06.869Z,11.61
2023-02-23T00:48:11.784Z,11.62
2023-02-23T00:53:15.397Z,11.66
2023-02-23T00:58:18.644Z,11.58
2023-02-23T01:03:23.389Z,11.51
2023-02-23T01:08:28.136Z,11.51
2023-02-23T01:13:31.405Z,11.49
2023-02-23T01:18:36.970Z,11.47
2023-02-23T01:23:40.233Z,11.37
2023-02-23T01:28:43.480Z,11.31
2023-02-23T01:33:48.220Z,11.10
2023-02-23T01:38:51.462Z,11.03
2023-02-23T01:43:58.994Z,11.20
2023-02-23T01:49:05.264Z,10.98
2023-02-23T01:54:14.718Z,10.87
2023-02-23T01:59:19.138Z,10.82
2023-02-23T02:04:26.046Z,10.73
2023-02-23T02:09:29.525Z,10.76
2023-02-23T02:14:33.468Z,10.76
2023-02-23T02:20:32.847Z,10.71
2023-02-23T02:25:54.079Z,10.72
2023-02-23T02:31:36.360Z,10.67
2023-02-23T02:37:20.306Z,10.57
2023-02-23T02:42:35.576Z,10.51
2023-02-23T02:47:42.331Z,10.54
2023-02-23T02:52:55.516Z,10.50
2023-02-23T02:58:02.378Z,10.50
2023-02-23T03:03:23.249Z,10.50
2023-02-23T03:08:53.319Z,10.34
2023-02-23T03:14:29.796Z,10.17
2023-02-23T03:19:55.374Z,10.09
2023-02-23T03:25:19.245Z,10.01
2023-02-23T03:30:44.635Z,9.87
2023-02-23T03:36:11.127Z,9.64
2023-02-23T03:41:36.733Z,9.57
2023-02-23T03:46:57.253Z,9.42
2023-02-23T03:52:23.768Z,9.55
2023-02-23T03:57:49.696Z,9.40
2023-02-23T04:03:13.119Z,9.32
2023-02-23T04:08:37.812Z,9.37
2023-02-23T04:13:47.595Z,9.48
2023-02-23T04:18:50.941Z,9.43
2023-02-23T04:23:54.090Z,9.20
2023-02-23T04:28:58.620Z,9.02
2023-02-23T04:34:01.789Z,9.10
2023-02-23T04:39:05.116Z,9.13
2023-02-23T04:44:09.661Z,8.95
2023-02-23T04:49:12.853Z,8.77
2023-02-23T04:54:15.984Z,8.55
2023-02-23T04:59:20.503Z,8.29
2023-02-23T05:04:23.927Z,8.07
2023-02-23T05:09:27.182Z,8.15
2023-02-23T05:14:31.772Z,8.29
2023-02-23T05:19:34.919Z,8.14
2023-02-23T05:24:38.193Z,7.89
2023-02-23T05:29:42.878Z,7.71
2023-02-23T05:34:46.009Z,8.13
2023-02-23T05:39:49.314Z,7.99
2023-02-23T05:44:53.944Z,7.95
2023-02-23T05:49:57.198Z,7.90
2023-02-23T05:55:00.482Z,7.81
2023-02-23T06:00:07.436Z,7.66
2023-02-23T06:05:11.098Z,7.70
2023-02-23T06:10:14.599Z,7.62
2023-02-23T06:15:19.461Z,7.50
2023-02-23T06:20:22.957Z,7.32
2023-02-23T06:25:26.234Z,7.29
2023-02-23T06:30:31.054Z,7.31
2023-02-23T06:35:34.506Z,7.54
2023-02-23T06:40:39.154Z,7.64
2023-02-23T06:45:44.088Z,7.51
2023-02-23T06:50:47.348Z,7.65
2023-02-23T06:55:50.538Z,7.55
2023-02-23T07:00:56.958Z,7.52
2023-02-23T07:06:00.197Z,7.49
2023-02-23T07:11:08.583Z,7.18
2023-02-23T07:16:15.079Z,7.41
2023-02-23T07:21:18.602Z,7.13
2023-02-23T07:26:21.957Z,7.13
2023-02-23T07:31:26.963Z,7.08
2023-02-23T07:36:30.175Z,7.20
2023-02-23T07:41:33.366Z,7.14
2023-02-23T07:46:37.972Z,6.95
2023-02-23T07:51:41.544Z,6.80
2023-02-23T07:56:44.973Z,6.99
2023-02-23T08:01:49.514Z,6.91
2023-02-23T08:06:52.679Z,7.18
2023-02-23T08:11:55.797Z,9.37
2023-02-23T08:17:01.848Z,10.81
2023-02-23T08:22:07.268Z,10.49
2023-02-23T08:27:12.925Z,10.04
2023-02-23T08:32:17.675Z,9.84
2023-02-23T08:37:20.917Z,10.16
2023-02-23T08:42:24.085Z,11.26
2023-02-23T08:47:28.700Z,13.62
2023-02-23T08:52:31.843Z,14.71
2023-02-23T08:57:35.037Z,15.24
2023-02-23T09:02:39.819Z,15.80
2023-02-23T09:07:45.233Z,16.52
2023-02-23T09:12:48.484Z,18.01
2023-02-23T09:17:54.601Z,18.83
2023-02-23T09:22:57.786Z,19.73
2023-02-23T09:28:01.005Z,19.31
2023-02-23T09:33:07.504Z,16.93
2023-02-23T09:38:11.219Z,14.75
2023-02-23T09:43:17.623Z,13.49
2023-02-23T09:48:23.840Z,12.49
2023-02-23T09:53:37.101Z,12.40
2023-02-23T09:58:40.916Z,12.55
2023-02-23T10:03:54.453Z,11.64
2023-02-23T10:09:07.732Z,11.77
2023-02-23T10:14:24.476Z,11.97
2023-02-23T10:19:38.274Z,12.32
2023-02-23T10:24:45.550Z,12.73
2023-02-23T10:29:51.599Z,14.14
2023-02-23T10:34:57.682Z,16.58
2023-02-23T10:40:00.855Z,18.47
2023-02-23T10:45:04.096Z,20.50
2023-02-23T10:50:12.657Z,22.23
2023-02-23T10:55:24.717Z,21.99
2023-02-23T11:00:33.001Z,20.81
2023-02-23T11:05:45.602Z,21.03
2023-02-23T11:11:21.936Z,18.98
2023-02-23T11:16:26.866Z,17.27
2023-02-23T11:21:34.673Z,16.17
2023-02-23T11:26:42.063Z,19.00
2023-02-23T11:31:50.201Z,20.68
2023-02-23T11:37:04.747Z,20.08
2023-02-23T11:42:17.117Z,22.08
2023-02-23T11:47:23.121Z,22.79
2023-02-23T11:52:28.911Z,21.29
2023-02-23T11:57:35.303Z,21.79
2023-02-23T12:02:51.101Z,21.87
2023-02-23T12:08:03.993Z,20.65
2023-02-23T12:13:20.724Z,19.15
2023-02-23T12:18:38.382Z,20.64
2023-02-23T12:23:50.361Z,18.93
2023-02-23T12:28:59.631Z,18.73
2023-02-23T12:34:06.337Z,17.45
2023-02-23T12:39:18.659Z,16.86
2023-02-23T12:44:35.557Z,16.61
2023-02-23T12:49:44.626Z,16.71
2023-02-23T12:54:50.071Z,17.53
2023-02-23T13:00:24.147Z,17.39
2023-02-23T13:05:29.713Z,16.39
2023-02-23T13:10:43.655Z,17.20
2023-02-23T13:15:58.593Z,16.53
2023-02-23T13:21:06.780Z,15.24
2023-02-23T13:26:21.081Z,15.02
2023-02-23T13:31:26.987Z,14.45
2023-02-23T13:36:32.643Z,14.59
2023-02-23T13:41:43.004Z,16.91
2023-02-23T13:46:54.617Z,17.69
2023-02-23T13:52:00.635Z,16.61
2023-02-23T13:57:12.504Z,16.09
2023-02-23T14:02:33.302Z,15.92
2023-02-23T14:07:42.985Z,17.48
2023-02-23T14:13:07.820Z,19.35
2023-02-23T14:18:33.846Z,19.70
2023-02-23T14:23:50.201Z,17.82
2023-02-23T14:29:21.555Z,19.18
2023-02-23T14:34:43.256Z,19.22
2023-02-23T14:39:46.825Z,18.76
2023-02-23T14:44:52.825Z,17.42
2023-02-23T14:49:58.457Z,18.42
2023-02-23T14:55:15.703Z,18.47
2023-02-23T15:00:24.210Z,19.21
2023-02-23T15:05:30.439Z,19.81
2023-02-23T15:10:36.774Z,19.17
2023-02-23T15:15:46.618Z,18.02
2023-02-23T15:20:50.511Z,18.43
2023-02-23T15:25:53.890Z,17.59
2023-02-23T15:31:02.383Z,17.64
2023-02-23T15:36:10.757Z,17.75
2023-02-23T15:41:19.907Z,16.65
2023-02-23T15:46:29.753Z,15.63
2023-02-23T15:51:37.696Z,15.00
2023-02-23T15:56:41.288Z,14.93
2023-02-23T16:01:47.209Z,14.80
2023-02-23T16:06:53.283Z,14.52
2023-02-23T16:12:01.607Z,15.51
2023-02-23T16:17:11.974Z,16.14
2023-02-23T16:22:23.292Z,16.37
2023-02-23T16:27:28.402Z,16.82
2023-02-23T16:32:39.668Z,16.08
2023-02-23T16:37:58.314Z,16.56
2023-02-23T16:43:01.475Z,16.59
2023-02-23T16:48:11.615Z,15.77
2023-02-23T16:53:15.456Z,16.14
2023-02-23T16:58:21.059Z,15.47
2023-02-23T17:03:27.423Z,15.15
2023-02-23T17:08:31.837Z,15.21
2023-02-23T17:13:35.514Z,14.75
2023-02-23T17:18:42.932Z,14.40
2023-02-23T17:23:51.118Z,14.36
2023-02-23T17:28:55.065Z,14.28
2023-02-23T17:33:59.748Z,14.11
2023-02-23T17:39:03.238Z,13.81
2023-02-23T17:44:06.431Z,13.58
2023-02-23T17:49:11.139Z,13.66
2023-02-23T17:54:14.322Z,13.35
2023-02-23T17:59:17.460Z,13.17
2023-02-23T18:04:22.026Z,13.02
2023-02-23T18:09:25.164Z,12.87
2023-02-23T18:14:28.364Z,12.49
2023-02-23T18:19:33.071Z,12.41
2023-02-23T18:24:36.429Z,12.29
2023-02-23T18:29:40.015Z,11.96
2023-02-23T18:34:44.564Z,11.66
2023-02-23T18:39:47.675Z,11.62
2023-02-23T18:44:51.050Z,11.49
2023-02-23T18:49:56.747Z,11.26
2023-02-23T18:55:00.000Z,11.26
2023-02-23T19:00:07.197Z,11.18
2023-02-23T19:05:13.021Z,11.08
2023-02-23T19:10:16.558Z,10.99
2023-02-23T19:15:19.940Z,10.91
2023-02-23T19:20:24.637Z,10.75
2023-02-23T19:25:27.775Z,10.88
2023-02-23T19:30:30.965Z,10.76
2023-02-23T19:35:35.473Z,10.75
2023-02-23T19:40:42.761Z,10.67
2023-02-23T19:45:46.919Z,10.51
2023-02-23T19:50:51.775Z,10.32
2023-02-23T19:56:00.610Z,10.19
2023-02-23T20:01:07.889Z,10.20
2023-02-23T20:06:14.082Z,10.19
2023-02-23T20:11:17.421Z,10.23
2023-02-23T20:16:20.680Z,10.21
2023-02-23T20:21:26.866Z,10.14
2023-02-23T20:26:34.517Z,9.98
2023-02-23T20:31:39.677Z,9.78
2023-02-23T20:36:45.516Z,9.55
2023-02-23T20:41:53.498Z,9.47
2023-02-23T20:46:56.913Z,9.51
2023-02-23T20:52:01.484Z,9.39
2023-02-23T20:57:09.145Z,9.25
2023-02-23T21:02:14.101Z,9.29
2023-02-23T21:07:18.684Z,9.27
2023-02-23T21:12:21.933Z,9.06
2023-02-23T21:17:25.048Z,9.03
2023-02-23T21:22:29.673Z,9.11
2023-02-23T21:27:33.163Z,9.18
2023-02-23T21:32:41.360Z,9.14
2023-02-23T21:37:47.010Z,9.06
2023-02-23T21:42:50.910Z,8.99
2023-02-23T21:47:54.056Z,8.69
2023-02-23T21:52:58.972Z,8.41
2023-02-23T21:58:03.169Z,8.26
2023-02-23T22:03:06.413Z,8.49
2023-02-23T22:08:15.716Z,8.55
2023-02-23T22:13:18.837Z,8.40
2023-02-23T22:18:24.334Z,8.26
2023-02-23T22:23:31.462Z,8.27
2023-02-23T22:28:35.655Z,8.18
2023-02-23T22:33:41.704Z,8.13
2023-02-23T22:38:46.884Z,8.09
2023-02-23T22:43:50.601Z,7.85
2023-02-23T22:48:53.766Z,7.70
2023-02-23T22:53:58.271Z,7.69
2023-02-23T22:59:06.122Z,7.28
2023-02-23T23:04:11.184Z,7.69
2023-02-23T23:09:16.701Z,7.76
2023-02-23T23:14:20.505Z,8.07
2023-02-23T23:19:24.804Z,8.08
2023-02-23T23:24:29.485Z,7.78
2023-02-23T23:29:32.828Z,7.54
2023-02-23T23:34:36.003Z,7.90
2023-02-23T23:39:40.670Z,8.04
2023-02-23T23:44:44.509Z,7.66
2023-02-23T23:49:47.717Z,7.51
2023-02-23T23:54:52.300Z,7.31
2023-02-23T23:59:56.441Z,7.24
